Time;durP1;ratioP1;P1;durP2;ratioP2;P2;SDS_P1;SDS_P2;PMS_P1;PMS_P2;Temp;Humidity;BMP_temperature;BMP_pressure;BME280_temperature;BME280_humidity;BME280_pressure;Samples;Min_cycle;Max_cycle;Signal;HPM_P1;HPM_P2
2022/06/03 00:01:08;;;;;;;5.53;2.67;;;;;;;11.45;100.00;102335.25;5028303;28;20467;-75
2022/06/03 00:03:46;;;;;;;4.27;3.20;;;;;;;11.46;100.00;102330.75;5019055;28;20442;-76
2022/06/03 00:06:32;;;;;;;3.33;3.00;;;;;;;11.39;100.00;102329.72;5035063;28;20446;-76
2022/06/03 00:09:01;;;;;;;4.73;2.53;;;;;;;11.39;100.00;102327.88;5044135;28;20474;-75
2022/06/03 00:11:59;;;;;;;3.80;2.97;;;;;;;11.27;100.00;102322.00;5027899;28;20522;-75
2022/06/03 00:14:46;;;;;;;3.60;3.30;;;;;;;11.28;100.00;102331.75;5029537;28;20466;-75
2022/06/03 00:17:33;;;;;;;4.67;2.80;;;;;;;11.31;100.00;102333.25;5032756;28;20443;-75
2022/06/03 00:20:26;;;;;;;4.10;2.80;;;;;;;10.98;100.00;102271.47;5022866;28;20500;-76
2022/06/03 00:23:10;;;;;;;3.67;3.37;;;;;;;11.31;100.00;102335.94;5025738;28;20434;-76
2022/06/03 00:25:52;;;;;;;4.20;3.07;;;;;;;10.93;100.00;102300.66;5032359;28;20435;-76
2022/06/03 00:28:18;;;;;;;4.57;3.40;;;;;;;11.17;100.00;102342.00;5030736;28;20512;-75
2022/06/03 00:30:55;;;;;;;3.50;3.20;;;;;;;11.20;100.00;102338.97;5028352;28;20482;-75
2022/06/03 00:33:35;;;;;;;5.13;2.80;;;;;;;11.35;100.00;102337.28;5031279;28;20208;-76
2022/06/03 00:36:28;;;;;;;3.73;3.43;;;;;;;11.17;100.00;102334.78;5021806;28;20437;-75
2022/06/03 00:39:09;;;;;;;3.70;3.00;;;;;;;11.02;100.00;102329.22;5030945;28;20842;-76
2022/06/03 00:42:02;;;;;;;4.73;3.47;;;;;;;10.84;100.00;102269.44;5030168;28;20443;-75
2022/06/03 00:44:45;;;;;;;3.33;3.03;;;;;;;11.06;100.00;102335.09;5033935;28;20470;-75
2022/06/03 00:47:32;;;;;;;3.90;3.40;;;;;;;11.17;100.00;102340.13;5014482;28;20443;-76
2022/06/03 00:50:00;;;;;;;3.60;3.13;;;;;;;11.07;100.00;102331.38;5028662;28;20450;-75
2022/06/03 00:53:04;;;;;;;6.47;3.50;;;;;;;11.08;100.00;102331.22;5030970;28;20879;-76
2022/06/03 00:56:04;;;;;;;4.33;3.57;;;;;;;10.95;100.00;102336.22;5031378;28;20441;-76
2022/06/03 00:59:07;;;;;;;3.07;2.77;;;;;;;11.03;100.00;102324.69;5028832;28;20483;-75
2022/06/03 01:02:08;;;;;;;3.40;3.10;;;;;;;10.80;100.00;102327.97;5025358;28;20451;-76
2022/06/03 01:05:03;;;;;;;3.87;3.33;;;;;;;10.85;100.00;102338.25;5024634;28;20467;-74
2022/06/03 01:07:57;;;;;;;3.63;3.17;;;;;;;10.94;100.00;102326.50;5030981;28;20545;-75
2022/06/03 01:10:31;;;;;;;3.63;3.30;;;;;;;11.06;100.00;102324.34;5033321;28;20464;-75
2022/06/03 01:13:05;;;;;;;4.37;3.43;;;;;;;10.95;100.00;102319.28;5039217;28;20469;-75
2022/06/03 01:15:47;;;;;;;4.97;3.40;;;;;;;10.90;100.00;102317.09;5029164;28;20446;-75
2022/06/03 01:18:34;;;;;;;4.05;3.40;;;;;;;10.79;100.00;102317.41;5030868;28;20452;-74
2022/06/03 01:21:17;;;;;;;5.60;3.65;;;;;;;10.81;100.00;102318.09;5024321;28;21873;-76
2022/06/03 01:23:52;;;;;;;4.20;3.80;;;;;;;10.56;100.00;102267.03;5028437;28;20500;-75
2022/06/03 01:26:55;;;;;;;3.17;2.87;;;;;;;10.73;100.00;102315.38;5029066;28;20443;-75
2022/06/03 01:29:57;;;;;;;4.43;3.73;;;;;;;10.86;100.00;102315.75;5031539;28;20471;-75
2022/06/03 01:32:47;;;;;;;4.33;3.53;;;;;;;10.81;100.00;102312.72;5020535;28;20906;-74
2022/06/03 01:35:21;;;;;;;4.70;3.60;;;;;;;11.06;100.00;102317.13;5031077;28;20454;-75
2022/06/03 01:37:57;;;;;;;4.33;3.80;;;;;;;10.78;100.00;102278.97;5027201;28;20469;-75
2022/06/03 01:40:40;;;;;;;4.90;3.60;;;;;;;10.67;100.00;102279.28;5028488;28;20438;-74
2022/06/03 01:43:20;;;;;;;5.90;3.47;;;;;;;10.77;100.00;102314.88;5017348;28;20443;-75
2022/06/03 01:46:07;;;;;;;3.97;3.60;;;;;;;10.73;100.00;102310.88;5029773;28;20441;-75
2022/06/03 01:48:39;;;;;;;4.70;3.73;;;;;;;10.86;100.00;102316.59;5042115;28;20473;-76
2022/06/03 01:51:46;;;;;;;4.63;3.80;;;;;;;10.86;100.00;102310.38;5034311;28;20450;-76
2022/06/03 01:55:04;;;;;;;3.93;3.53;;;;;;;10.72;100.00;102311.03;5007026;28;20450;-75
2022/06/03 01:57:55;;;;;;;3.70;3.40;;;;;;;10.70;100.00;102311.16;5032306;28;20529;-76
2022/06/03 02:00:34;;;;;;;4.63;4.20;;;;;;;10.56;100.00;102299.25;5032465;28;20433;-75
2022/06/03 02:03:31;;;;;;;4.00;3.60;;;;;;;10.65;100.00;102310.84;5031837;28;20434;-75
2022/06/03 02:06:33;;;;;;;3.83;3.50;;;;;;;10.66;100.00;102306.31;5031052;28;20427;-75
2022/06/03 02:09:11;;;;;;;4.57;3.43;;;;;;;10.43;100.00;102300.69;5029112;28;20472;-75
2022/06/03 02:12:06;;;;;;;6.03;4.03;;;;;;;10.30;100.00;102277.00;5030278;28;20443;-75
2022/06/03 02:14:50;;;;;;;4.03;3.63;;;;;;;10.44;100.00;102300.53;5025471;28;20463;-76
2022/06/03 02:17:18;;;;;;;4.53;3.40;;;;;;;10.43;100.00;102304.22;5030728;28;20445;-76
2022/06/03 02:20:06;;;;;;;3.73;3.40;;;;;;;10.37;100.00;102296.81;5022053;28;20451;-75
2022/06/03 02:22:40;;;;;;;4.37;3.90;;;;;;;10.42;100.00;102291.81;5034264;28;20434;-75
2022/06/03 02:25:09;;;;;;;5.30;3.70;;;;;;;10.34;100.00;102295.28;5042033;23;21038;-73
2022/06/03 02:27:37;;;;;;;3.43;3.10;;;;;;;10.53;100.00;102298.72;5043537;28;21244;-71
2022/06/03 02:30:56;;;;;;;3.80;3.50;;;;;;;10.51;100.00;102298.88;5041512;28;20477;-71
2022/06/03 02:33:57;;;;;;;3.40;3.13;;;;;;;10.32;100.00;102265.09;5005857;28;20453;-71
2022/06/03 02:36:44;;;;;;;4.13;3.73;;;;;;;10.61;100.00;102296.06;5023737;28;20521;-71
2022/06/03 02:39:24;;;;;;;3.90;3.50;;;;;;;10.52;100.00;102291.66;5026886;28;20435;-71
2022/06/03 02:42:08;;;;;;;3.80;3.40;;;;;;;10.27;100.00;102290.72;5023459;28;20506;-71
2022/06/03 02:44:51;;;;;;;4.20;3.53;;;;;;;10.33;100.00;102290.94;5023506;28;20475;-71
2022/06/03 02:47:35;;;;;;;3.07;2.87;;;;;;;10.28;100.00;102289.75;5020762;28;20447;-71
2022/06/03 02:50:49;;;;;;;3.30;2.97;;;;;;;10.30;100.00;102288.59;5024851;28;20469;-71
2022/06/03 02:53:53;;;;;;;3.13;2.83;;;;;;;10.01;100.00;102267.47;5011187;28;20463;-71
2022/06/03 02:56:24;;;;;;;2.93;2.70;;;;;;;10.18;100.00;102292.50;5018880;28;20466;-71
2022/06/03 02:59:24;;;;;;;5.33;2.93;;;;;;;10.13;100.00;102284.97;5019246;28;20427;-71
2022/06/03 03:01:52;;;;;;;7.10;3.40;;;;;;;10.19;100.00;102291.53;5036652;28;20443;-71
2022/06/03 03:04:54;;;;;;;6.10;3.20;;;;;;;10.33;100.00;102292.78;5025163;28;20506;-71
2022/06/03 03:07:28;;;;;;;4.30;3.60;;;;;;;10.11;100.00;102284.28;5022456;28;20779;-71
2022/06/03 03:10:25;;;;;;;3.70;3.40;;;;;;;10.09;100.00;102296.97;5024130;28;21404;-71
2022/06/03 03:13:12;;;;;;;5.43;3.73;;;;;;;10.12;100.00;102307.38;5022555;28;20433;-71
2022/06/03 03:15:59;;;;;;;3.70;3.40;;;;;;;10.10;100.00;102292.50;5020865;28;20513;-71
2022/06/03 03:18:56;;;;;;;3.30;3.00;;;;;;;10.03;100.00;102273.50;5022387;28;20446;-71
2022/06/03 03:21:45;;;;;;;3.23;2.73;;;;;;;10.16;100.00;102300.72;5020735;28;20450;-71
2022/06/03 03:24:49;;;;;;;3.60;2.97;;;;;;;10.13;100.00;102271.56;5014609;28;20482;-71
2022/06/03 03:27:37;;;;;;;3.50;2.80;;;;;;;9.96;100.00;102262.59;5022034;28;20875;-71
2022/06/03 03:30:22;;;;;;;3.23;2.97;;;;;;;10.21;100.00;102294.84;5039421;28;20435;-71
2022/06/03 03:33:30;;;;;;;3.13;2.60;;;;;;;10.04;100.00;102272.53;5021460;28;20518;-72
2022/06/03 03:36:01;;;;;;;3.40;2.73;;;;;;;10.06;100.00;102297.31;5024980;28;20465;-71
2022/06/03 03:38:58;;;;;;;3.13;2.90;;;;;;;10.13;100.00;102290.31;5019828;28;20467;-71
2022/06/03 03:41:29;;;;;;;2.77;2.53;;;;;;;10.25;100.00;102285.50;5020234;28;20434;-71
2022/06/03 03:44:03;;;;;;;3.70;2.50;;;;;;;10.18;100.00;102289.81;5019965;28;20521;-71
2022/06/03 03:46:51;;;;;;;3.40;3.00;;;;;;;10.17;100.00;102291.66;5020605;28;20433;-71
2022/06/03 03:49:38;;;;;;;3.37;3.07;;;;;;;10.15;100.00;102293.69;5020704;28;20937;-71
2022/06/03 03:52:06;;;;;;;3.60;3.30;;;;;;;10.33;100.00;102290.94;5024413;28;20471;-71
2022/06/03 03:55:07;;;;;;;3.17;2.87;;;;;;;10.14;100.00;102285.78;5023227;28;20538;-71
2022/06/03 03:58:05;;;;;;;3.07;2.80;;;;;;;10.27;100.00;102299.63;5013422;28;20455;-71
2022/06/03 04:01:16;;;;;;;3.93;3.53;;;;;;;10.27;100.00;102288.03;5024141;28;20423;-71
2022/06/03 04:04:13;;;;;;;3.30;3.00;;;;;;;10.36;100.00;102287.09;5004543;28;20466;-71
2022/06/03 04:06:55;;;;;;;4.63;3.30;;;;;;;10.13;100.00;102266.19;5011152;28;20431;-71
2022/06/03 04:09:39;;;;;;;3.07;2.87;;;;;;;10.31;100.00;102297.47;5020194;28;26184;-71
2022/06/03 04:12:22;;;;;;;3.83;3.53;;;;;;;10.37;100.00;102291.47;5022293;28;20891;-71
2022/06/03 04:15:07;;;;;;;3.97;2.87;;;;;;;10.44;100.00;102289.78;5021514;28;20471;-71
2022/06/03 04:17:50;;;;;;;3.30;3.00;;;;;;;10.45;100.00;102286.13;5020441;28;20446;-71
2022/06/03 04:20:36;;;;;;;2.90;2.43;;;;;;;10.11;100.00;102243.22;5023706;28;20438;-71
2022/06/03 04:23:23;;;;;;;3.53;3.20;;;;;;;10.53;100.00;102283.47;5016270;28;20493;-71
2022/06/03 04:26:01;;;;;;;3.30;2.77;;;;;;;10.57;100.00;102294.72;5035930;28;20482;-71
2022/06/03 04:28:26;;;;;;;3.13;2.87;;;;;;;10.60;100.00;102289.84;5035330;28;20467;-71
2022/06/03 04:31:20;;;;;;;3.10;2.80;;;;;;;10.61;100.00;102283.47;5021312;28;20466;-71
2022/06/03 04:33:54;;;;;;;3.20;3.00;;;;;;;10.58;100.00;102297.22;5022367;28;20242;-71
2022/06/03 04:36:45;;;;;;;3.97;3.07;;;;;;;10.30;100.00;102291.28;5035859;28;20449;-71
2022/06/03 04:39:47;;;;;;;2.93;2.63;;;;;;;10.33;100.00;102293.63;5021481;28;20796;-71
2022/06/03 04:42:44;;;;;;;3.50;3.20;;;;;;;10.38;100.00;102295.81;5020821;28;20434;-71
2022/06/03 04:45:15;;;;;;;3.87;3.20;;;;;;;10.34;100.00;102302.50;5024197;28;20513;-73
2022/06/03 04:48:18;;;;;;;3.60;3.30;;;;;;;10.68;100.00;102296.25;5021797;28;20505;-71
2022/06/03 04:51:05;;;;;;;4.23;3.60;;;;;;;10.54;100.00;102298.56;5013912;28;20955;-71
2022/06/03 04:53:53;;;;;;;4.70;3.40;;;;;;;10.70;100.00;102299.59;5034801;28;20494;-71
2022/06/03 04:56:52;;;;;;;4.23;3.77;;;;;;;10.67;100.00;102297.25;5015764;28;20873;-73
2022/06/03 04:59:36;;;;;;;4.00;3.67;;;;;;;10.76;100.00;102301.63;5019480;28;20552;-71
2022/06/03 05:02:32;;;;;;;5.53;4.20;;;;;;;10.63;100.00;102304.78;5052738;28;20436;-71
2022/06/03 05:05:26;;;;;;;5.53;3.87;;;;;;;10.82;100.00;102282.19;5038517;28;20462;-72
2022/06/03 05:08:16;;;;;;;4.43;3.73;;;;;;;10.92;100.00;102298.16;5015502;28;20547;-72
2022/06/03 05:11:02;;;;;;;4.03;3.47;;;;;;;10.90;100.00;102300.97;5039483;28;20466;-72
2022/06/03 05:13:46;;;;;;;5.10;3.33;;;;;;;11.06;100.00;102305.56;5019862;28;20451;-70
2022/06/03 05:16:17;;;;;;;4.30;3.30;;;;;;;11.05;100.00;102298.47;5017018;28;28865;-71
2022/06/03 05:18:52;;;;;;;4.90;3.70;;;;;;;11.31;100.00;102301.88;5016995;28;20439;-70
2022/06/03 05:21:33;;;;;;;3.87;3.47;;;;;;;11.21;100.00;102298.50;5014509;28;20881;-70
2022/06/03 05:24:35;;;;;;;4.83;3.83;;;;;;;11.32;100.00;102287.44;5016877;28;20458;-70
2022/06/03 05:27:19;;;;;;;4.10;3.70;;;;;;;11.55;100.00;102286.75;5014288;28;21164;-72
2022/06/03 05:30:07;;;;;;;4.40;3.93;;;;;;;11.58;100.00;102285.56;5006735;28;21806;-72
2022/06/03 05:33:07;;;;;;;3.90;3.10;;;;;;;11.74;100.00;102290.91;5017485;28;20435;-73
2022/06/03 05:36:20;;;;;;;4.33;3.33;;;;;;;11.84;100.00;102290.72;5014278;28;20446;-72
2022/06/03 05:39:23;;;;;;;6.20;4.00;;;;;;;11.84;100.00;102288.88;5019486;28;21020;-72
2022/06/03 05:42:29;;;;;;;4.87;3.80;;;;;;;11.81;100.00;102283.84;5033363;28;20438;-71
2022/06/03 05:45:32;;;;;;;4.70;4.30;;;;;;;11.96;100.00;102289.38;5017683;28;20458;-72
2022/06/03 05:48:08;;;;;;;5.50;4.47;;;;;;;12.01;100.00;102272.75;5018619;28;20474;-72
2022/06/03 05:50:55;;;;;;;4.17;3.77;;;;;;;12.11;100.00;102294.88;5012255;28;20569;-75
2022/06/03 05:53:30;;;;;;;4.43;4.03;;;;;;;12.20;100.00;102301.91;5018934;28;20463;-71
2022/06/03 05:56:04;;;;;;;4.70;4.30;;;;;;;12.33;100.00;102293.28;5021814;28;20809;-72
2022/06/03 05:58:47;;;;;;;4.33;3.93;;;;;;;12.36;100.00;102301.84;5024185;28;20807;-72
2022/06/03 06:01:44;;;;;;;5.17;3.83;;;;;;;12.50;100.00;102291.34;5024452;28;20462;-72
2022/06/03 06:04:43;;;;;;;4.90;4.40;;;;;;;11.81;100.00;102184.38;5018678;28;20473;-72
2022/06/03 06:07:26;;;;;;;4.83;4.17;;;;;;;12.32;100.00;102270.91;5023522;28;20443;-72
2022/06/03 06:10:29;;;;;;;4.33;3.80;;;;;;;12.69;100.00;102285.53;5024964;28;20948;-73
2022/06/03 06:13:13;;;;;;;6.43;4.90;;;;;;;12.81;100.00;102294.84;5022584;28;20431;-73
2022/06/03 06:15:42;;;;;;;6.87;3.90;;;;;;;12.95;100.00;102282.50;5019262;28;20466;-72
2022/06/03 06:18:15;;;;;;;4.50;3.80;;;;;;;13.09;100.00;102272.78;5020976;28;20497;-72
2022/06/03 06:20:56;;;;;;;7.37;4.63;;;;;;;12.93;100.00;102280.97;5020158;28;20972;-73
2022/06/03 06:23:45;;;;;;;4.57;4.17;;;;;;;12.80;100.00;102265.44;5034990;28;20462;-72
2022/06/03 06:26:41;;;;;;;5.70;4.00;;;;;;;12.99;100.00;102269.50;5020674;28;20446;-72
2022/06/03 06:29:44;;;;;;;4.70;3.63;;;;;;;13.03;100.00;102262.75;5019915;28;20467;-72
2022/06/03 06:32:16;;;;;;;5.63;4.10;;;;;;;13.03;100.00;102254.66;5037859;28;20961;-72
2022/06/03 06:35:10;;;;;;;4.53;3.00;;;;;;;13.18;100.00;102252.84;5020161;28;20540;-72
2022/06/03 06:38:03;;;;;;;3.50;3.10;;;;;;;13.26;100.00;102250.13;4985191;28;20482;-72
2022/06/03 06:40:29;;;;;;;3.67;2.87;;;;;;;13.48;100.00;102251.09;5019744;28;20447;-72
2022/06/03 06:43:28;;;;;;;5.90;3.40;;;;;;;13.48;100.00;102253.81;5017026;28;20452;-72
2022/06/03 06:46:19;;;;;;;3.40;3.10;;;;;;;13.53;100.00;102258.63;5022821;28;20196;-72
2022/06/03 06:48:58;;;;;;;5.73;3.30;;;;;;;13.54;100.00;102244.13;5037031;28;20466;-73
2022/06/03 06:51:45;;;;;;;2.93;2.73;;;;;;;13.61;100.00;102249.63;5018120;28;20497;-72
2022/06/03 06:54:22;;;;;;;3.80;2.93;;;;;;;13.49;100.00;102241.16;5020755;28;20561;-72
2022/06/03 06:56:55;;;;;;;3.90;3.07;;;;;;;13.37;100.00;102216.50;5022355;28;20492;-72
2022/06/03 06:59:27;;;;;;;2.43;2.23;;;;;;;13.64;100.00;102217.72;5023224;28;20442;-73
2022/06/03 07:02:04;;;;;;;5.03;2.37;;;;;;;13.85;100.00;102245.81;5017129;28;20517;-71
2022/06/03 07:04:38;;;;;;;2.20;2.00;;;;;;;13.89;100.00;102242.56;5013898;28;20455;-71
2022/06/03 07:07:04;;;;;;;3.07;2.60;;;;;;;13.88;100.00;102240.03;5021022;28;20470;-71
2022/06/03 07:09:56;;;;;;;6.80;2.60;;;;;;;13.91;100.00;102245.06;5025049;28;21175;-71
2022/06/03 07:12:30;;;;;;;3.30;2.10;;;;;;;13.88;100.00;102199.59;5022531;28;20188;-71
2022/06/03 07:15:09;;;;;;;2.57;1.57;;;;;;;14.14;100.00;102245.78;5024516;28;20543;-71
2022/06/03 07:20:31;;;;;;;2.07;1.67;;;;;;;14.16;100.00;102248.31;5022073;28;20967;-72
2022/06/03 07:23:17;;;;;;;2.20;1.27;;;;;;;14.24;100.00;102245.50;5041674;28;20459;-72
2022/06/03 07:25:42;;;;;;;1.60;1.50;;;;;;;14.30;100.00;102247.44;5027042;28;20951;-71
2022/06/03 07:28:27;;;;;;;1.30;1.20;;;;;;;14.39;100.00;102237.38;5022258;28;20468;-71
2022/06/03 07:31:10;;;;;;;2.80;1.30;;;;;;;14.48;100.00;102236.22;5021609;28;20169;-71
2022/06/03 07:33:46;;;;;;;3.37;1.53;;;;;;;14.54;100.00;102234.66;5023070;28;21041;-72
2022/06/03 07:36:14;;;;;;;2.50;1.13;;;;;;;14.65;100.00;102237.69;5022222;28;20426;-73
2022/06/03 07:38:45;;;;;;;2.57;1.00;;;;;;;14.78;100.00;102226.22;5019208;28;20438;-73
2022/06/03 07:41:53;;;;;;;0.90;0.90;;;;;;;14.57;100.00;102218.91;5013095;28;20439;-72
2022/06/03 07:44:26;;;;;;;2.17;1.53;;;;;;;14.54;100.00;102197.69;4996205;28;20458;-74
2022/06/03 07:47:00;;;;;;;2.10;1.00;;;;;;;14.63;100.00;102195.72;5021694;28;20867;-73
2022/06/03 07:49:29;;;;;;;1.13;0.90;;;;;;;14.51;100.00;102168.34;5022012;28;20997;-73
2022/06/03 07:52:03;;;;;;;0.97;0.80;;;;;;;14.80;100.00;102207.94;5021951;28;20441;-73
2022/06/03 07:54:35;;;;;;;1.27;1.00;;;;;;;14.81;100.00;102209.63;5019462;28;20458;-71
2022/06/03 07:57:04;;;;;;;1.20;1.03;;;;;;;14.98;100.00;102220.13;5010120;28;20426;-71
2022/06/03 07:59:32;;;;;;;1.33;1.23;;;;;;;15.01;100.00;102236.78;5017817;28;20463;-71
2022/06/03 08:02:01;;;;;;;3.10;1.70;;;;;;;15.04;100.00;102233.72;5021053;28;20447;-71
2022/06/03 08:04:36;;;;;;;1.43;1.30;;;;;;;15.06;100.00;102234.34;5018106;28;20905;-70
2022/06/03 08:12:36;;;;;;;1.07;0.93;;;;;;;15.14;100.00;102220.69;5017847;28;20434;-70
2022/06/03 08:15:20;;;;;;;3.70;1.17;;;;;;;15.03;100.00;102199.63;5016682;28;20457;-71
2022/06/03 08:17:49;;;;;;;1.27;1.00;;;;;;;15.43;100.00;102229.66;5035280;28;20432;-72
2022/06/03 08:20:18;;;;;;;1.77;1.20;;;;;;;15.39;100.00;102214.88;5017964;28;20439;-73
2022/06/03 08:22:45;;;;;;;2.83;1.10;;;;;;;15.30;100.00;102211.47;5019164;28;20428;-72
2022/06/03 08:25:17;;;;;;;2.40;1.10;;;;;;;15.35;100.00;102222.53;5016018;28;20466;-71
2022/06/03 08:27:44;;;;;;;4.67;1.20;;;;;;;15.32;100.00;102203.16;5016167;28;20446;-71
2022/06/03 08:30:19;;;;;;;1.00;0.90;;;;;;;15.53;100.00;102222.00;5035499;28;20474;-70
2022/06/03 08:32:53;;;;;;;1.87;1.00;;;;;;;15.63;100.00;102234.38;5054296;22;20500;-77
2022/06/03 08:35:24;;;;;;;1.27;0.97;;;;;;;15.30;100.00;102202.50;5045013;28;20443;-77
2022/06/03 08:37:54;;;;;;;0.90;0.80;;;;;;;15.59;100.00;102233.91;5053231;28;20433;-77
2022/06/03 08:40:34;;;;;;;1.60;1.23;;;;;;;15.74;100.00;102231.16;5066626;28;20481;-76
2022/06/03 08:43:22;;;;;;;1.50;1.10;;;;;;;15.57;100.00;102217.06;5045750;28;20490;-79
2022/06/03 08:45:56;;;;;;;1.20;0.83;;;;;;;15.80;100.00;102224.94;5046527;28;20438;-77
2022/06/03 08:48:28;;;;;;;1.10;0.90;;;;;;;15.84;100.00;102215.38;5029894;28;20503;-78
2022/06/03 08:50:58;;;;;;;0.97;0.97;;;;;;;15.64;100.00;102190.06;5037104;28;20437;-79
2022/06/03 08:53:37;;;;;;;0.73;0.73;;;;;;;15.75;100.00;102203.06;5045042;28;20727;-78
2022/06/03 08:56:13;;;;;;;1.43;0.80;;;;;;;16.02;100.00;102223.78;5043144;28;20527;-78
2022/06/03 08:58:56;;;;;;;1.20;1.00;;;;;;;16.07;100.00;102216.94;5049291;28;20783;-78
2022/06/03 09:02:09;;;;;;;1.90;1.30;;;;;;;16.20;100.00;102214.28;5044926;28;20465;-78
2022/06/03 09:04:37;;;;;;;2.07;1.00;;;;;;;16.23;100.00;102211.19;5038976;28;20444;-79
2022/06/03 09:07:14;;;;;;;1.03;0.93;;;;;;;15.67;100.00;102116.63;5051622;28;20445;-80
2022/06/03 09:09:47;;;;;;;0.87;0.80;;;;;;;16.39;100.00;102210.81;5068069;28;20473;-80
2022/06/03 09:12:34;;;;;;;1.17;0.80;;;;;;;16.43;100.00;102212.09;5050239;28;20469;-81
2022/06/03 09:15:05;;;;;;;0.90;0.80;;;;;;;16.25;100.00;102168.47;5041198;28;20445;-80
2022/06/03 09:17:48;;;;;;;1.57;0.93;;;;;;;16.59;100.00;102210.84;5041391;28;20524;-79
2022/06/03 09:20:22;;;;;;;1.73;1.00;;;;;;;16.54;100.00;102207.91;5041431;28;20429;-80
2022/06/03 09:22:51;;;;;;;0.97;0.87;;;;;;;15.66;100.00;102063.59;5039910;28;20457;-80
2022/06/03 09:25:18;;;;;;;1.07;0.93;;;;;;;15.22;100.00;101986.47;5053907;28;20440;-81
2022/06/03 09:27:47;;;;;;;1.47;1.10;;;;;;;15.87;100.00;102068.88;5043254;28;20446;-80
2022/06/03 09:30:24;;;;;;;2.63;0.97;;;;;;;16.69;100.00;102194.19;5045097;28;20446;-78
2022/06/03 09:32:50;;;;;;;1.70;1.10;;;;;;;16.73;100.00;102192.75;5040043;28;20458;-77
2022/06/03 09:35:24;;;;;;;0.70;0.70;;;;;;;16.36;100.00;102112.91;5044756;28;20949;-79
2022/06/03 09:37:53;;;;;;;0.93;0.83;;;;;;;16.13;100.00;102078.09;5049130;28;20549;-78
2022/06/03 09:40:22;;;;;;;1.60;0.90;;;;;;;16.98;100.00;102181.31;5044792;28;20517;-78
2022/06/03 09:43:03;;;;;;;3.90;1.10;;;;;;;15.93;100.00;102007.69;5039943;28;20469;-79
2022/06/03 09:45:29;;;;;;;1.93;1.00;;;;;;;16.90;100.00;102142.56;5049261;28;20438;-74
2022/06/03 09:47:56;;;;;;;1.10;1.00;;;;;;;16.52;100.00;102082.72;5049685;28;20979;-80
2022/06/03 09:50:24;;;;;;;0.70;0.70;;;;;;;17.19;100.00;102174.88;5042107;28;21134;-77
2022/06/03 09:52:58;;;;;;;2.00;1.10;;;;;;;17.15;100.00;102175.28;5045743;28;20900;-78
2022/06/03 09:55:40;;;;;;;1.17;0.90;;;;;;;17.17;100.00;102173.19;5036280;28;20458;-76
2022/06/03 09:58:11;;;;;;;0.97;0.87;;;;;;;16.99;100.00;102132.34;5039869;28;20540;-77
2022/06/03 10:00:43;;;;;;;1.43;1.30;;;;;;;16.53;100.00;102035.63;5044662;28;20488;-77
2022/06/03 10:03:10;;;;;;;1.10;1.00;;;;;;;17.23;100.00;102149.81;5044411;28;20465;-77
2022/06/03 10:05:36;;;;;;;1.90;1.30;;;;;;;16.05;100.00;101949.19;5042642;28;20449;-77
2022/06/03 10:08:09;;;;;;;1.13;1.03;;;;;;;17.08;100.00;102095.81;5044032;28;20531;-77
2022/06/03 10:13:19;;;;;;;1.73;1.43;;;;;;;17.27;100.00;102102.25;5046540;28;20428;-78
2022/06/03 10:15:56;;;;;;;1.73;1.63;;;;;;;17.67;100.00;102177.25;5049831;28;20445;-80
2022/06/03 10:18:32;;;;;;;3.03;1.70;;;;;;;17.70;100.00;102185.78;5046365;28;20304;-79
2022/06/03 10:21:05;;;;;;;2.00;1.63;;;;;;;17.62;100.00;102165.16;5042819;28;20523;-78
2022/06/03 10:23:35;;;;;;;2.33;1.90;;;;;;;17.71;100.00;102159.50;5036484;28;21440;-78
2022/06/03 10:26:01;;;;;;;2.13;1.53;;;;;;;17.40;100.00;102061.53;5050058;28;20460;-77
2022/06/03 10:28:35;;;;;;;1.33;1.23;;;;;;;18.06;100.00;102163.56;5042602;28;20588;-78
2022/06/03 10:31:14;;;;;;;1.93;1.53;;;;;;;17.71;100.00;102097.94;5048836;28;21268;-77
2022/06/03 10:33:52;;;;;;;1.50;1.40;;;;;;;17.94;100.00;102157.16;5050654;28;20520;-77
2022/06/03 10:36:18;;;;;;;1.87;1.60;;;;;;;17.48;100.00;102067.78;5051641;28;20445;-77
2022/06/03 10:38:48;;;;;;;1.97;1.43;;;;;;;17.11;100.00;101994.28;5050885;28;20820;-77
2022/06/03 10:41:14;;;;;;;1.63;1.53;;;;;;;18.05;100.00;102161.91;5047868;28;20821;-77
2022/06/03 10:43:41;;;;;;;2.53;1.83;;;;;;;17.55;100.00;102072.09;5054328;28;20473;-78
2022/06/03 10:46:13;;;;;;;1.40;1.30;;;;;;;17.92;100.00;102156.53;5050588;28;20206;-77
2022/06/03 10:48:40;;;;;;;2.23;1.40;;;;;;;17.85;100.00;102158.44;5047816;28;20560;-80
2022/06/03 11:02:44;;;;;;;3.63;1.63;;;;;;;17.91;100.00;102062.59;5050581;28;20983;-80
2022/06/03 11:05:09;;;;;;;1.20;1.10;;;;;;;18.32;100.00;102137.31;5049139;28;20443;-79
2022/06/03 11:07:36;;;;;;;1.30;1.20;;;;;;;18.10;100.00;102081.66;5050305;28;20282;-80
2022/06/03 11:10:09;;;;;;;1.73;1.00;;;;;;;18.64;100.00;102129.13;5049744;28;20319;-80
2022/06/03 11:12:35;;;;;;;1.40;1.13;;;;;;;18.13;100.00;102033.19;5040975;28;20469;-80
2022/06/03 11:15:00;;;;;;;1.90;1.57;;;;;;;18.51;100.00;102065.72;5039847;28;20918;-77
2022/06/03 11:17:32;;;;;;;1.60;1.50;;;;;;;19.05;100.00;102120.44;5043930;28;20192;-75
2022/06/03 11:19:58;;;;;;;1.10;1.00;;;;;;;18.57;100.00;102020.47;5039323;28;20282;-77
2022/06/03 11:22:34;;;;;;;1.20;1.10;;;;;;;18.87;100.00;102107.63;5048097;28;20839;-76
2022/06/03 11:25:18;;;;;;;4.93;0.93;;;;;;;18.06;100.00;101961.81;5048904;28;20429;-73
2022/06/03 11:28:04;;;;;;;1.33;1.00;;;;;;;19.08;100.00;102095.50;5050182;28;20538;-81
2022/06/03 11:30:51;;;;;;;2.03;1.00;;;;;;;19.00;100.00;102049.56;5042971;28;20444;-82
2022/06/03 11:33:28;;;;;;;1.37;0.90;;;;;;;19.16;100.00;102092.50;5044434;28;20504;-75
2022/06/03 11:35:56;;;;;;;0.83;0.73;;;;;;;18.60;100.00;101992.91;5048845;28;20441;-75
2022/06/03 11:38:29;;;;;;;1.47;0.60;;;;;;;18.83;100.00;102000.41;5049614;28;20437;-76
2022/06/03 11:41:00;;;;;;;0.80;0.80;;;;;;;19.58;100.00;102086.34;5048678;28;20800;-76
2022/06/03 11:43:34;;;;;;;1.73;0.87;;;;;;;19.58;100.00;102089.09;5047918;28;20466;-78
2022/06/03 11:46:05;;;;;;;0.80;0.80;;;;;;;19.11;100.00;102012.66;5038321;28;20445;-75
2022/06/03 11:48:45;;;;;;;0.80;0.73;;;;;;;19.21;100.00;102032.00;5045256;28;20460;-75
2022/06/03 11:51:12;;;;;;;0.83;0.70;;;;;;;19.78;100.00;102088.84;5050319;28;20464;-79
2022/06/03 11:53:40;;;;;;;1.73;1.23;;;;;;;18.94;100.00;101971.63;5049911;28;20426;-74
2022/06/03 11:56:10;;;;;;;0.80;0.80;;;;;;;18.90;100.00;101976.69;5038960;28;21432;-75
2022/06/03 11:58:53;;;;;;;1.93;1.10;;;;;;;19.58;100.00;102081.75;5042705;28;20430;-77
2022/06/03 12:01:32;;;;;;;0.80;0.73;;;;;;;19.14;100.00;102037.50;5026493;28;20460;-77
2022/06/03 12:04:22;;;;;;;19.00;3.07;;;;;;;19.40;100.00;102076.31;5033154;28;20461;-78
2022/06/03 12:07:06;;;;;;;1.87;1.13;;;;;;;19.49;100.00;102055.91;5042939;28;20433;-80
2022/06/03 12:09:45;;;;;;;0.87;0.80;;;;;;;19.62;100.00;102069.34;5047369;28;20588;-80
2022/06/03 12:15:31;;;;;;;1.80;0.97;;;;;;;20.00;100.00;102068.25;5029082;28;20846;-78
2022/06/03 12:18:11;;;;;;;0.80;0.63;;;;;;;20.02;100.00;102073.47;5042358;28;20492;-76
2022/06/03 12:20:52;;;;;;;2.03;0.80;;;;;;;19.91;100.00;102075.06;5029783;28;20461;-76
2022/06/03 12:23:17;;;;;;;0.87;0.80;;;;;;;19.94;100.00;102062.91;5036212;28;20446;-75
2022/06/03 12:25:48;;;;;;;1.43;0.80;;;;;;;19.97;100.00;102076.88;5038103;28;20502;-76
2022/06/03 12:28:29;;;;;;;1.20;1.10;;;;;;;20.08;100.00;102062.47;5043723;28;20251;-76
2022/06/03 12:31:03;;;;;;;1.03;0.87;;;;;;;19.31;100.00;101949.84;5046566;28;21565;-76
2022/06/03 12:33:44;;;;;;;1.87;1.10;;;;;;;19.90;100.00;102076.13;5039268;28;20451;-76
2022/06/03 12:36:10;;;;;;;1.03;0.70;;;;;;;20.13;100.00;102071.81;5034887;28;20437;-76
2022/06/03 12:38:43;;;;;;;2.27;0.90;;;;;;;19.60;100.00;101970.78;5038792;28;20441;-76
2022/06/03 12:41:09;;;;;;;1.57;0.80;;;;;;;19.71;100.00;101947.41;5046767;28;20214;-76
2022/06/03 12:43:47;;;;;;;1.97;1.00;;;;;;;20.49;100.00;102073.56;5038628;28;20441;-77
2022/06/03 12:46:38;;;;;;;1.33;0.80;;;;;;;20.48;100.00;102071.88;5042768;28;20442;-75